Time;durP1;ratioP1;P1;durP2;ratioP2;P2;SDS_P1;SDS_P2;PMS_P1;PMS_P2;Temp;Humidity;BMP_temperature;BMP_pressure;BME280_temperature;BME280_humidity;BME280_pressure;Samples;Min_cycle;Max_cycle;Signal;HPM_P1;HPM_P2
2023/01/24 00:00:38;;;;;;;3.23;2.70;;;;;;;3.36;99.12;102060.69;5054304;28;20455;-56
2023/01/24 00:03:05;;;;;;;1.10;1.10;;;;;;;3.62;98.64;102066.72;5054613;28;20479;-55
2023/01/24 00:05:34;;;;;;;4.90;2.20;;;;;;;3.35;99.17;102068.53;5053864;28;20973;-55
2023/01/24 00:08:01;;;;;;;1.33;1.20;;;;;;;3.39;100.00;102054.63;5053953;28;20533;-54
2023/01/24 00:10:29;;;;;;;1.70;1.63;;;;;;;3.30;99.44;102051.75;5035193;28;20451;-54
2023/01/24 00:12:55;;;;;;;0.67;0.67;;;;;;;3.27;99.91;102061.31;5053957;28;20545;-54
2023/01/24 00:15:21;;;;;;;1.37;1.30;;;;;;;3.69;98.74;102062.50;5053698;28;20443;-54
2023/01/24 00:17:48;;;;;;;0.60;0.60;;;;;;;3.77;98.00;102066.25;5053702;28;20868;-54
2023/01/24 00:20:15;;;;;;;1.27;1.17;;;;;;;3.63;98.54;102060.59;5053466;28;20908;-54
2023/01/24 00:22:42;;;;;;;0.73;0.73;;;;;;;3.32;99.48;102065.81;5053345;28;20548;-54
2023/01/24 00:25:11;;;;;;;1.33;1.10;;;;;;;3.20;100.00;102055.84;5053432;28;20454;-54
2023/01/24 00:27:38;;;;;;;1.90;1.63;;;;;;;3.41;99.60;102060.81;5053419;28;20852;-54
2023/01/24 00:30:05;;;;;;;0.83;0.83;;;;;;;3.65;98.58;102063.25;5053443;28;20454;-54
2023/01/24 00:32:32;;;;;;;1.20;1.20;;;;;;;3.69;98.06;102063.38;5035401;28;20462;-54
2023/01/24 00:34:58;;;;;;;3.43;3.13;;;;;;;3.57;97.83;102063.06;5053224;28;20450;-54
2023/01/24 00:37:25;;;;;;;3.63;1.40;;;;;;;3.49;99.12;102064.56;5053205;28;20447;-54
2023/01/24 00:39:52;;;;;;;2.03;1.70;;;;;;;3.50;99.12;102066.34;5040320;28;20473;-54
2023/01/24 00:42:18;;;;;;;0.77;0.77;;;;;;;3.38;99.64;102069.50;5053193;28;20544;-54
2023/01/24 00:44:45;;;;;;;4.47;2.87;;;;;;;3.53;99.27;102063.81;5040300;28;20459;-54
2023/01/24 00:47:11;;;;;;;1.20;1.10;;;;;;;3.57;99.07;102057.81;5053008;28;20447;-55
2023/01/24 00:49:38;;;;;;;2.63;2.53;;;;;;;3.62;98.36;102060.56;5052950;28;20888;-54
2023/01/24 00:52:04;;;;;;;2.30;2.07;;;;;;;3.63;98.96;102062.34;5052744;28;20550;-54
2023/01/24 00:54:31;;;;;;;1.30;1.20;;;;;;;3.52;98.85;102059.41;5052976;28;20447;-54
2023/01/24 00:56:57;;;;;;;2.20;2.10;;;;;;;3.33;99.64;102063.25;5052826;28;20990;-54
2023/01/24 00:59:24;;;;;;;2.27;2.07;;;;;;;3.60;99.20;102065.78;5052772;28;20943;-54
2023/01/24 01:01:50;;;;;;;1.20;1.20;;;;;;;3.54;98.89;102057.69;5052466;28;21124;-54
2023/01/24 01:04:16;;;;;;;1.30;1.27;;;;;;;3.35;100.00;102061.53;5052746;28;20455;-55
2023/01/24 01:06:44;;;;;;;2.20;2.10;;;;;;;3.24;100.00;102069.09;5052527;28;20931;-54
2023/01/24 01:09:10;;;;;;;2.87;2.77;;;;;;;3.28;100.00;102055.19;5052875;28;20454;-54
2023/01/24 01:11:41;;;;;;;1.33;1.23;;;;;;;3.23;100.00;102061.19;5052702;28;20447;-54
2023/01/24 01:14:08;;;;;;;2.87;2.60;;;;;;;3.21;100.00;102057.63;5052555;28;20948;-55
2023/01/24 01:16:37;;;;;;;2.30;2.20;;;;;;;3.37;100.00;102053.69;5052429;28;20457;-54
2023/01/24 01:19:04;;;;;;;2.90;1.30;;;;;;;3.49;100.00;102054.06;5052590;28;20865;-54
2023/01/24 01:21:31;;;;;;;2.27;1.97;;;;;;;3.41;100.00;102059.06;5052071;28;20490;-54
2023/01/24 01:23:58;;;;;;;3.50;1.93;;;;;;;3.45;99.73;102063.59;5052739;28;20548;-55
2023/01/24 01:26:24;;;;;;;0.73;0.73;;;;;;;3.50;100.00;102061.97;5052569;28;20449;-54
2023/01/24 01:28:51;;;;;;;2.30;2.20;;;;;;;3.54;99.59;102071.72;5052521;28;20966;-54
2023/01/24 01:31:17;;;;;;;1.40;1.30;;;;;;;3.23;100.00;102066.44;5052523;28;20449;-54
2023/01/24 01:33:44;;;;;;;1.67;1.57;;;;;;;3.12;100.00;102068.72;5052154;28;20554;-54
2023/01/24 01:36:10;;;;;;;2.10;1.30;;;;;;;3.09;100.00;102063.38;5052494;28;20439;-54
2023/01/24 01:38:37;;;;;;;0.67;0.67;;;;;;;3.31;100.00;102071.94;5052556;28;20500;-54
2023/01/24 01:41:04;;;;;;;1.20;1.10;;;;;;;3.47;100.00;102066.28;5052221;28;20557;-54
2023/01/24 01:43:31;;;;;;;3.90;2.33;;;;;;;3.61;99.79;102066.66;5052091;28;20477;-54
2023/01/24 01:46:23;;;;;;;11.87;4.63;;;;;;;3.53;99.85;102069.06;5052174;28;20451;-55
2023/01/24 01:48:53;;;;;;;6.90;3.30;;;;;;;3.58;99.54;102064.84;5052537;28;20438;-54
2023/01/24 01:51:27;;;;;;;2.37;2.27;;;;;;;3.54;99.99;102061.22;5039608;28;20443;-54
2023/01/24 01:54:17;;;;;;;1.80;1.43;;;;;;;3.50;100.00;102069.88;5051955;28;20467;-55
2023/01/24 01:56:46;;;;;;;2.60;2.40;;;;;;;3.53;99.65;102067.31;5052163;28;20538;-54
2023/01/24 01:59:19;;;;;;;1.70;1.60;;;;;;;3.64;99.15;102066.75;5052149;28;20504;-54
2023/01/24 02:01:49;;;;;;;3.80;2.10;;;;;;;3.34;100.00;102064.13;5051947;28;20482;-55
2023/01/24 02:04:22;;;;;;;3.53;1.87;;;;;;;3.32;100.00;102071.06;5051841;28;20947;-55
2023/01/24 02:07:13;;;;;;;1.70;1.60;;;;;;;3.28;100.00;102073.59;5051975;28;20450;-54
2023/01/24 02:09:43;;;;;;;0.97;0.80;;;;;;;3.33;100.00;102080.75;5035368;28;20447;-54
2023/01/24 02:12:18;;;;;;;6.60;1.80;;;;;;;3.25;100.00;102080.50;5051997;28;20471;-55
2023/01/24 02:17:32;;;;;;;1.63;1.27;;;;;;;3.27;100.00;102078.81;5051802;28;20481;-55
2023/01/24 02:20:30;;;;;;;0.70;0.70;;;;;;;3.39;100.00;102087.06;5052029;28;20454;-55
2023/01/24 02:23:28;;;;;;;0.73;0.73;;;;;;;3.14;100.00;102095.03;5051781;28;20487;-54
2023/01/24 02:26:10;;;;;;;2.50;1.37;;;;;;;3.13;100.00;102102.03;5051881;28;20451;-54
2023/01/24 02:28:44;;;;;;;2.13;2.03;;;;;;;3.20;100.00;102096.13;5051860;28;20812;-54
2023/01/24 02:31:10;;;;;;;1.90;1.20;;;;;;;3.09;100.00;102096.66;5051999;28;20443;-55
2023/01/24 02:33:36;;;;;;;2.10;1.63;;;;;;;2.96;100.00;102101.50;5054430;28;20474;-54
2023/01/24 02:36:28;;;;;;;1.53;1.43;;;;;;;2.94;100.00;102102.31;5055739;28;20450;-54
2023/01/24 02:39:00;;;;;;;0.87;0.87;;;;;;;2.97;100.00;102094.53;5055792;28;20451;-54
2023/01/24 02:41:33;;;;;;;1.03;1.03;;;;;;;2.92;100.00;102097.03;5055589;28;20446;-54
2023/01/24 02:44:05;;;;;;;2.10;2.00;;;;;;;2.92;100.00;102096.13;5055506;28;20489;-54
2023/01/24 02:46:36;;;;;;;1.13;1.03;;;;;;;3.06;100.00;102091.31;5055409;28;20443;-54
2023/01/24 02:49:06;;;;;;;2.00;1.63;;;;;;;3.10;100.00;102098.44;5055632;28;20568;-54
2023/01/24 02:54:18;;;;;;;3.17;2.93;;;;;;;3.00;100.00;102101.59;5055612;28;20489;-54
2023/01/24 02:59:29;;;;;;;2.13;1.90;;;;;;;3.12;100.00;102100.25;5043106;28;20451;-55
2023/01/24 03:01:55;;;;;;;1.53;1.43;;;;;;;3.12;100.00;102102.00;5054710;28;20995;-54
2023/01/24 03:04:22;;;;;;;0.63;0.50;;;;;;;3.20;100.00;102098.75;5055105;28;20469;-54
2023/01/24 03:06:48;;;;;;;2.27;2.13;;;;;;;3.25;100.00;102099.78;5054996;28;20451;-54
2023/01/24 03:09:19;;;;;;;3.80;1.17;;;;;;;3.21;100.00;102097.91;5055149;28;20455;-54
2023/01/24 03:11:49;;;;;;;2.30;2.20;;;;;;;3.26;100.00;102098.03;5054856;28;20445;-54
2023/01/24 03:36:20;;;;;;;3.07;1.63;;;;;;;3.07;100.00;102093.97;5054432;28;20454;-54
2023/01/24 03:41:31;;;;;;;2.20;1.43;;;;;;;2.82;100.00;102100.19;5041002;28;20936;-54
2023/01/24 03:43:58;;;;;;;2.30;1.50;;;;;;;2.77;100.00;102103.50;5054205;28;20550;-54
2023/01/24 03:46:24;;;;;;;1.23;1.13;;;;;;;2.72;100.00;102121.72;5054440;28;20447;-54
2023/01/24 03:48:50;;;;;;;0.90;0.90;;;;;;;2.76;100.00;102122.75;5054055;28;20826;-54
2023/01/24 03:54:02;;;;;;;2.70;2.50;;;;;;;2.96;100.00;102124.25;5054278;28;20466;-54
2023/01/24 03:56:28;;;;;;;10.00;2.93;;;;;;;2.96;100.00;102122.53;5054450;28;20458;-54
2023/01/24 03:58:54;;;;;;;2.30;1.17;;;;;;;3.01;100.00;102120.03;5054305;28;20451;-53
2023/01/24 04:01:21;;;;;;;2.03;1.90;;;;;;;2.84;100.00;102124.75;5054141;28;20461;-53
2023/01/24 04:03:47;;;;;;;5.00;2.63;;;;;;;2.79;100.00;102122.84;5053828;28;20991;-54
2023/01/24 04:06:14;;;;;;;4.37;1.47;;;;;;;2.87;100.00;102116.97;5054384;28;20454;-53
2023/01/24 04:08:40;;;;;;;1.60;1.50;;;;;;;2.77;100.00;102114.03;5047423;28;20451;-54
2023/01/24 04:11:07;;;;;;;1.97;1.87;;;;;;;2.82;100.00;102125.56;5054241;28;20457;-53
2023/01/24 04:13:33;;;;;;;2.23;1.80;;;;;;;2.93;100.00;102122.44;5054062;28;20466;-53
2023/01/24 04:16:00;;;;;;;5.90;1.70;;;;;;;2.63;100.00;102126.69;5053870;28;20450;-53
2023/01/24 04:18:26;;;;;;;2.10;1.90;;;;;;;2.94;100.00;102124.22;5053636;28;20451;-54
2023/01/24 04:20:53;;;;;;;3.40;2.47;;;;;;;2.81;100.00;102118.53;5054035;28;20525;-54
2023/01/24 04:23:19;;;;;;;16.03;2.10;;;;;;;2.84;100.00;102121.22;5053636;28;20564;-53
2023/01/24 04:25:54;;;;;;;1.97;1.67;;;;;;;2.78;100.00;102121.06;5053805;28;20447;-53
2023/01/24 04:28:21;;;;;;;2.73;2.63;;;;;;;2.86;100.00;102128.31;5053505;28;20955;-54
2023/01/24 04:30:56;;;;;;;11.10;2.80;;;;;;;2.63;100.00;102124.06;5053260;28;20450;-54
2023/01/24 04:33:23;;;;;;;0.77;0.67;;;;;;;2.75;100.00;102123.59;5053550;28;20883;-54
2023/01/24 04:35:49;;;;;;;2.53;2.33;;;;;;;2.76;100.00;102114.88;5053531;28;20823;-53
2023/01/24 04:38:16;;;;;;;6.03;1.03;;;;;;;2.78;100.00;102113.19;5053474;28;20457;-54
2023/01/24 04:40:42;;;;;;;0.83;0.80;;;;;;;2.78;100.00;102114.06;5053181;28;20508;-54
2023/01/24 04:43:09;;;;;;;2.63;2.13;;;;;;;2.84;100.00;102122.13;5053083;28;21041;-54
2023/01/24 04:45:35;;;;;;;5.40;1.83;;;;;;;2.77;100.00;102121.91;5052998;28;20497;-54
2023/01/24 04:48:01;;;;;;;2.33;2.17;;;;;;;2.75;100.00;102121.84;5053265;28;20447;-54
2023/01/24 04:50:28;;;;;;;2.40;2.30;;;;;;;2.73;100.00;102122.63;5053189;28;20450;-54
2023/01/24 04:52:54;;;;;;;0.80;0.80;;;;;;;2.58;100.00;102121.28;5052951;28;20467;-53
2023/01/24 04:55:21;;;;;;;1.47;1.17;;;;;;;2.60;100.00;102126.56;5052294;28;20454;-54
2023/01/24 04:57:48;;;;;;;6.10;0.90;;;;;;;2.75;100.00;102131.47;5052999;28;20458;-54
2023/01/24 05:00:15;;;;;;;1.20;1.10;;;;;;;2.75;100.00;102120.97;5052729;28;20452;-54
2023/01/24 05:02:41;;;;;;;0.83;0.83;;;;;;;2.97;100.00;102137.44;5053121;28;20494;-54
2023/01/24 05:05:08;;;;;;;1.87;1.77;;;;;;;2.70;100.00;102130.41;5053180;28;20517;-55
2023/01/24 05:07:34;;;;;;;5.60;0.90;;;;;;;2.72;100.00;102129.59;5052993;28;20443;-54
2023/01/24 05:10:05;;;;;;;0.90;0.90;;;;;;;2.96;100.00;102134.75;5052684;28;20447;-55
2023/01/24 05:12:32;;;;;;;1.60;0.97;;;;;;;3.01;100.00;102129.66;5052615;28;20463;-54
2023/01/24 05:14:58;;;;;;;3.57;3.27;;;;;;;2.90;100.00;102132.84;5052804;28;20449;-55
2023/01/24 05:17:25;;;;;;;2.43;2.23;;;;;;;2.86;100.00;102132.69;5052727;28;20792;-55
2023/01/24 05:19:51;;;;;;;1.23;1.23;;;;;;;2.78;100.00;102127.19;5052380;28;20869;-55
2023/01/24 05:22:17;;;;;;;1.83;1.73;;;;;;;2.67;100.00;102136.44;5052367;28;20573;-55
2023/01/24 05:24:44;;;;;;;1.27;1.27;;;;;;;2.80;100.00;102140.38;5052886;28;20451;-54
2023/01/24 05:27:10;;;;;;;1.00;0.90;;;;;;;2.73;100.00;102141.88;5052228;28;20469;-54
2023/01/24 05:29:37;;;;;;;1.17;1.07;;;;;;;2.72;100.00;102137.47;5052504;28;20468;-55
2023/01/24 05:32:03;;;;;;;2.43;2.33;;;;;;;2.83;100.00;102138.72;5052441;28;21013;-55
2023/01/24 05:34:30;;;;;;;0.80;0.80;;;;;;;2.87;100.00;102135.34;5052400;28;20542;-55
2023/01/24 05:36:56;;;;;;;12.03;2.50;;;;;;;2.96;100.00;102138.28;5052443;28;20451;-55
2023/01/24 05:39:23;;;;;;;0.80;0.80;;;;;;;2.86;100.00;102136.19;5052516;28;20450;-54
2023/01/24 05:41:49;;;;;;;6.03;2.40;;;;;;;2.83;100.00;102148.34;5052069;28;20454;-54
2023/01/24 05:44:16;;;;;;;1.00;0.80;;;;;;;2.75;100.00;102140.22;5052416;28;20518;-54
2023/01/24 05:46:43;;;;;;;1.70;1.60;;;;;;;2.84;100.00;102140.50;5052403;28;20529;-55
2023/01/24 05:49:10;;;;;;;1.00;1.00;;;;;;;2.83;100.00;102149.22;5052149;28;20529;-53
2023/01/24 05:51:36;;;;;;;1.53;1.43;;;;;;;2.67;100.00;102149.56;5052198;28;20443;-54
2023/01/24 05:54:03;;;;;;;2.10;2.00;;;;;;;2.78;100.00;102153.44;5052283;28;20473;-54
2023/01/24 05:56:29;;;;;;;1.07;1.00;;;;;;;2.80;100.00;102143.00;5052615;28;20446;-55
2023/01/24 05:58:57;;;;;;;1.40;1.37;;;;;;;2.76;100.00;102151.63;5052351;28;20542;-55
2023/01/24 06:01:24;;;;;;;1.43;0.70;;;;;;;2.89;100.00;102153.81;5052401;28;20458;-55
2023/01/24 06:03:52;;;;;;;0.90;0.90;;;;;;;2.95;100.00;102151.38;5052363;28;20537;-52
2023/01/24 06:06:21;;;;;;;2.70;2.50;;;;;;;2.82;100.00;102154.44;5052089;28;20450;-53
2023/01/24 06:08:48;;;;;;;0.60;0.60;;;;;;;3.07;100.00;102150.88;5054783;28;20799;-52
2023/01/24 06:11:18;;;;;;;1.57;1.47;;;;;;;2.89;100.00;102149.44;5056282;28;20442;-52
2023/01/24 06:13:45;;;;;;;5.70;2.73;;;;;;;2.94;100.00;102152.22;5055798;28;20529;-52
2023/01/24 06:16:17;;;;;;;4.70;2.03;;;;;;;2.90;100.00;102148.59;5056069;28;20446;-52
2023/01/24 06:18:44;;;;;;;1.23;0.93;;;;;;;2.82;100.00;102152.69;5056139;28;20591;-52
2023/01/24 06:21:44;;;;;;;2.17;1.27;;;;;;;2.75;100.00;102153.34;5056095;28;20819;-53
2023/01/24 06:24:22;;;;;;;2.80;1.30;;;;;;;2.76;100.00;102151.63;5047228;28;20490;-53
2023/01/24 06:26:50;;;;;;;0.60;0.50;;;;;;;2.80;100.00;102148.25;5055901;28;20455;-53
2023/01/24 06:29:17;;;;;;;3.07;1.20;;;;;;;2.76;100.00;102157.75;5055925;28;20450;-52
2023/01/24 06:31:53;;;;;;;1.37;1.37;;;;;;;2.77;100.00;102151.66;5055469;28;20958;-53
2023/01/24 06:35:04;;;;;;;1.37;0.97;;;;;;;2.75;100.00;102147.22;5055642;28;20855;-53
2023/01/24 06:37:39;;;;;;;6.03;2.23;;;;;;;2.73;100.00;102148.88;5055596;28;20457;-54
2023/01/24 06:40:12;;;;;;;10.60;4.03;;;;;;;2.72;100.00;102157.59;5055450;28;20496;-53
2023/01/24 06:42:39;;;;;;;3.40;2.90;;;;;;;2.65;100.00;102154.78;5055528;28;20573;-52
2023/01/24 06:45:06;;;;;;;2.10;2.00;;;;;;;2.68;100.00;102154.88;5055709;28;20486;-53
2023/01/24 06:47:33;;;;;;;4.47;2.47;;;;;;;2.71;100.00;102168.94;5037645;28;20450;-53
2023/01/24 06:50:00;;;;;;;9.00;2.70;;;;;;;2.86;100.00;102172.97;5055407;28;20457;-53
2023/01/24 06:52:26;;;;;;;2.03;1.23;;;;;;;2.89;100.00;102170.47;5055131;28;20971;-53
2023/01/24 06:54:53;;;;;;;1.73;1.40;;;;;;;2.82;100.00;102178.97;5055474;28;20952;-53
2023/01/24 06:57:19;;;;;;;1.00;1.00;;;;;;;3.01;100.00;102180.44;5055488;28;20450;-53
2023/01/24 06:59:45;;;;;;;4.57;4.30;;;;;;;3.19;100.00;102181.06;5055288;28;20454;-53
2023/01/24 07:02:12;;;;;;;3.83;1.57;;;;;;;2.94;100.00;102176.75;5055037;28;20527;-53
2023/01/24 07:04:38;;;;;;;2.83;2.60;;;;;;;3.05;100.00;102184.97;5055010;28;20494;-53
2023/01/24 07:07:07;;;;;;;4.90;0.80;;;;;;;3.10;100.00;102193.88;5054756;28;20447;-53
2023/01/24 07:09:34;;;;;;;2.17;2.07;;;;;;;3.07;100.00;102196.44;5055439;28;20454;-53
2023/01/24 07:12:00;;;;;;;8.13;2.00;;;;;;;3.11;100.00;102190.41;5055024;28;20471;-53
2023/01/24 07:14:27;;;;;;;1.60;1.20;;;;;;;3.20;100.00;102195.97;5054993;28;20442;-53
2023/01/24 07:16:55;;;;;;;3.57;2.83;;;;;;;3.20;99.92;102198.59;5054789;28;20450;-53
2023/01/24 07:19:23;;;;;;;0.83;0.83;;;;;;;3.19;99.89;102202.09;5054493;28;20462;-53
2023/01/24 07:21:52;;;;;;;0.60;0.60;;;;;;;3.27;100.00;102197.06;5054471;28;20451;-53
2023/01/24 07:24:21;;;;;;;3.07;1.30;;;;;;;3.07;100.00;102201.69;5054536;28;21082;-53
2023/01/24 07:26:51;;;;;;;1.30;1.03;;;;;;;3.10;100.00;102212.28;5054546;28;20479;-53
2023/01/24 07:29:18;;;;;;;2.00;1.90;;;;;;;2.89;100.00;102206.34;5054714;28;20446;-53
2023/01/24 07:31:47;;;;;;;5.20;2.70;;;;;;;3.05;100.00;102208.63;5042743;28;20447;-53
2023/01/24 07:34:17;;;;;;;0.73;0.73;;;;;;;3.09;100.00;102205.25;5054644;28;20451;-53
2023/01/24 07:36:45;;;;;;;1.23;0.93;;;;;;;3.19;99.98;102203.81;5054784;28;20457;-53
2023/01/24 07:39:13;;;;;;;2.80;2.70;;;;;;;3.27;100.00;102211.09;5054573;28;20446;-53
2023/01/24 07:41:42;;;;;;;3.27;2.83;;;;;;;3.20;100.00;102210.84;5054496;28;20450;-53
2023/01/24 07:44:08;;;;;;;0.63;0.60;;;;;;;3.39;99.77;102209.69;5036608;28;20506;-54
2023/01/24 07:46:35;;;;;;;11.33;2.50;;;;;;;3.52;99.53;102206.59;5054268;28;20534;-53
2023/01/24 07:49:03;;;;;;;1.43;1.37;;;;;;;3.55;99.32;102212.84;5054529;28;20450;-53
2023/01/24 07:51:29;;;;;;;6.83;2.37;;;;;;;3.53;99.40;102211.03;5054364;28;20450;-53
2023/01/24 07:53:55;;;;;;;3.03;2.63;;;;;;;3.56;98.79;102213.72;5054255;28;20469;-53
2023/01/24 07:56:22;;;;;;;0.80;0.80;;;;;;;3.46;98.89;102219.56;5054173;28;20504;-53
2023/01/24 07:58:51;;;;;;;1.93;1.83;;;;;;;3.60;97.87;102220.00;5054158;28;20542;-53
2023/01/24 08:01:21;;;;;;;4.43;2.23;;;;;;;3.30;99.27;102222.56;5053987;28;20455;-53
2023/01/24 08:03:49;;;;;;;6.10;1.70;;;;;;;3.40;99.53;102220.25;5053751;28;20495;-53
2023/01/24 08:06:16;;;;;;;1.63;1.13;;;;;;;3.25;100.00;102238.16;5054321;28;20537;-54
2023/01/24 08:08:42;;;;;;;4.47;2.70;;;;;;;3.38;99.43;102231.56;5054095;28;20461;-53
2023/01/24 08:11:11;;;;;;;1.73;1.63;;;;;;;3.52;100.00;102232.91;5054059;28;20487;-53
2023/01/24 08:13:37;;;;;;;1.30;1.30;;;;;;;3.32;100.00;102241.91;5053835;28;20455;-53
2023/01/24 08:16:04;;;;;;;1.30;1.30;;;;;;;3.27;99.88;102233.84;5053784;28;20446;-52
2023/01/24 08:18:31;;;;;;;1.73;1.63;;;;;;;3.18;100.00;102242.34;5053719;28;20541;-53
2023/01/24 08:20:58;;;;;;;1.33;1.07;;;;;;;3.12;100.00;102242.13;5053960;28;20458;-53
2023/01/24 08:23:24;;;;;;;2.73;2.60;;;;;;;3.06;100.00;102239.31;5053686;28;20490;-53
2023/01/24 08:25:51;;;;;;;6.00;1.23;;;;;;;3.10;100.00;102238.56;5053930;28;20504;-53
2023/01/24 08:28:17;;;;;;;4.93;1.60;;;;;;;3.13;100.00;102240.38;5053725;28;20496;-53
2023/01/24 08:30:44;;;;;;;1.40;1.30;;;;;;;3.10;100.00;102238.56;5052976;28;20451;-53
2023/01/24 08:33:15;;;;;;;3.40;2.03;;;;;;;3.16;100.00;102232.63;5053496;28;20467;-53
2023/01/24 08:35:41;;;;;;;1.07;0.97;;;;;;;3.20;100.00;102240.66;5053627;28;20833;-53
2023/01/24 08:38:08;;;;;;;0.40;0.37;;;;;;;3.24;100.00;102242.53;5053245;28;20861;-53
2023/01/24 08:40:34;;;;;;;0.80;0.80;;;;;;;3.07;100.00;102237.56;5053485;28;20461;-53
2023/01/24 08:43:14;;;;;;;0.63;0.63;;;;;;;3.16;100.00;102249.28;5040976;28;20506;-53
2023/01/24 08:45:41;;;;;;;4.20;1.13;;;;;;;3.27;100.00;102246.97;5053385;28;20451;-53
2023/01/24 08:48:07;;;;;;;0.80;0.60;;;;;;;3.16;100.00;102245.75;5053254;28;20851;-53
2023/01/24 08:50:34;;;;;;;1.67;1.50;;;;;;;3.06;100.00;102243.66;5053133;28;20826;-53
2023/01/24 08:53:00;;;;;;;2.13;2.03;;;;;;;3.19;100.00;102249.38;5053071;28;20470;-52
2023/01/24 08:55:27;;;;;;;1.50;1.40;;;;;;;3.20;100.00;102247.63;5052948;28;20451;-52
2023/01/24 08:57:59;;;;;;;0.70;0.70;;;;;;;3.29;100.00;102240.06;5053244;28;20469;-53
2023/01/24 09:00:26;;;;;;;1.70;1.13;;;;;;;3.12;100.00;102251.72;5053162;28;20451;-53
2023/01/24 09:02:52;;;;;;;0.53;0.53;;;;;;;3.20;100.00;102242.38;5052883;28;20497;-52
2023/01/24 09:05:19;;;;;;;2.63;2.43;;;;;;;3.15;100.00;102247.50;5052833;28;20494;-53
2023/01/24 09:07:46;;;;;;;0.80;0.80;;;;;;;3.09;100.00;102251.63;5052851;28;20504;-52
2023/01/24 09:10:12;;;;;;;6.13;1.47;;;;;;;3.30;100.00;102251.47;5053126;28;20462;-53
2023/01/24 09:12:39;;;;;;;1.50;1.03;;;;;;;3.31;100.00;102253.25;5053127;28;20470;-53
2023/01/24 09:15:07;;;;;;;1.43;1.33;;;;;;;3.27;100.00;102263.63;5052730;28;20447;-53
2023/01/24 09:17:34;;;;;;;2.20;2.03;;;;;;;3.25;100.00;102257.44;5052737;28;20906;-53
2023/01/24 09:20:00;;;;;;;0.73;0.73;;;;;;;3.31;100.00;102258.50;5052713;28;20453;-53
2023/01/24 09:22:27;;;;;;;4.57;1.37;;;;;;;3.33;100.00;102259.44;5052610;28;20513;-54
2023/01/24 09:24:54;;;;;;;3.43;1.93;;;;;;;3.35;100.00;102265.66;5052331;28;20497;-53
2023/01/24 09:27:20;;;;;;;1.13;0.90;;;;;;;3.36;100.00;102262.16;5052635;28;20450;-52
2023/01/24 09:29:47;;;;;;;2.37;2.27;;;;;;;3.37;100.00;102263.94;5052463;28;20457;-53
2023/01/24 09:32:13;;;;;;;2.77;1.60;;;;;;;3.47;100.00;102269.56;5052431;28;20524;-52
2023/01/24 09:34:46;;;;;;;1.17;1.07;;;;;;;3.24;100.00;102260.91;5052348;28;20447;-53
2023/01/24 09:37:17;;;;;;;2.50;2.10;;;;;;;3.28;100.00;102269.78;5052344;28;20443;-53
2023/01/24 09:39:44;;;;;;;1.40;1.03;;;;;;;3.34;100.00;102263.88;5052179;28;20801;-53
2023/01/24 09:42:40;;;;;;;2.97;1.57;;;;;;;3.24;100.00;102262.66;5052238;28;20467;-53
2023/01/24 09:45:07;;;;;;;1.13;1.10;;;;;;;3.42;100.00;102262.34;5042410;28;20514;-53
2023/01/24 09:47:45;;;;;;;2.13;1.63;;;;;;;3.33;100.00;102269.97;5052172;28;20821;-53
2023/01/24 09:50:24;;;;;;;2.30;2.20;;;;;;;3.18;100.00;102267.72;5052511;28;20470;-53
2023/01/24 09:52:53;;;;;;;2.67;2.47;;;;;;;3.36;100.00;102267.44;5039173;28;20467;-53
2023/01/24 09:55:28;;;;;;;3.67;2.47;;;;;;;3.35;100.00;102271.78;5052103;28;20525;-53
2023/01/24 09:58:00;;;;;;;0.70;0.70;;;;;;;3.28;100.00;102270.69;5034366;28;20557;-53
2023/01/24 10:00:30;;;;;;;3.90;2.10;;;;;;;3.27;100.00;102274.16;5052206;28;20447;-53
2023/01/24 10:02:59;;;;;;;0.70;0.70;;;;;;;3.33;100.00;102273.47;5051887;28;20983;-53
2023/01/24 10:05:36;;;;;;;1.40;1.30;;;;;;;3.37;100.00;102269.22;5052155;28;20548;-52
2023/01/24 10:08:19;;;;;;;0.70;0.70;;;;;;;3.27;100.00;102271.53;5046793;28;20536;-52
2023/01/24 10:10:56;;;;;;;2.03;1.93;;;;;;;3.25;100.00;102265.31;5052195;28;20549;-53
2023/01/24 10:13:51;;;;;;;2.23;2.13;;;;;;;3.30;100.00;102277.75;5051889;28;20526;-52
2023/01/24 10:16:39;;;;;;;0.90;0.90;;;;;;;3.33;100.00;102277.84;5051927;28;20449;-53
2023/01/24 10:19:08;;;;;;;1.20;1.20;;;;;;;3.27;100.00;102279.41;5051987;28;20925;-53
2023/01/24 10:21:58;;;;;;;8.47;2.10;;;;;;;3.41;100.00;102278.97;5052093;28;20453;-53
2023/01/24 10:24:30;;;;;;;5.93;1.43;;;;;;;3.34;100.00;102283.16;5013228;28;20482;-53
2023/01/24 10:26:59;;;;;;;1.60;1.50;;;;;;;3.33;100.00;102283.09;5039400;28;20450;-53
2023/01/24 10:29:31;;;;;;;1.07;1.00;;;;;;;3.42;100.00;102289.53;5051699;28;20888;-53
2023/01/24 10:32:06;;;;;;;2.43;2.33;;;;;;;3.48;100.00;102281.88;5051897;28;20549;-53
2023/01/24 10:34:46;;;;;;;2.00;1.77;;;;;;;3.40;100.00;102287.69;5051828;28;20452;-52
2023/01/24 10:37:22;;;;;;;1.00;1.00;;;;;;;3.52;100.00;102289.00;5051929;28;20442;-53
2023/01/24 10:39:48;;;;;;;0.97;0.93;;;;;;;3.38;100.00;102279.78;5051571;28;20446;-52
2023/01/24 10:42:24;;;;;;;2.10;1.90;;;;;;;3.36;100.00;102289.34;5051669;28;20470;-53
2023/01/24 10:44:53;;;;;;;2.30;1.17;;;;;;;3.51;100.00;102288.94;5022248;28;20498;-53
2023/01/24 10:47:37;;;;;;;1.90;1.13;;;;;;;3.43;100.00;102279.94;5051696;28;20461;-53
2023/01/24 10:50:16;;;;;;;3.70;1.63;;;;;;;3.43;100.00;102280.84;5051620;28;20453;-52
2023/01/24 10:52:46;;;;;;;3.27;3.03;;;;;;;3.31;100.00;102285.69;5051755;28;20470;-53
2023/01/24 10:55:39;;;;;;;6.50;2.23;;;;;;;3.37;100.00;102280.63;5055517;28;20517;-53
2023/01/24 10:58:25;;;;;;;0.70;0.70;;;;;;;3.40;100.00;102280.72;5050952;28;20465;-52
2023/01/24 11:00:59;;;;;;;1.67;1.57;;;;;;;3.30;100.00;102289.16;5055136;28;20822;-53
2023/01/24 11:03:29;;;;;;;1.40;1.40;;;;;;;3.33;100.00;102280.47;5055047;28;20477;-53
2023/01/24 11:05:57;;;;;;;5.93;1.63;;;;;;;3.39;100.00;102278.03;5055146;28;20449;-53
2023/01/24 11:08:31;;;;;;;1.17;1.17;;;;;;;3.35;100.00;102287.56;5054981;28;20831;-52
2023/01/24 11:10:59;;;;;;;1.67;1.50;;;;;;;3.26;100.00;102277.63;5054892;28;20541;-52
2023/01/24 11:13:28;;;;;;;1.13;1.03;;;;;;;3.33;100.00;102272.59;5054898;28;20493;-53
2023/01/24 11:16:01;;;;;;;6.83;4.33;;;;;;;3.31;100.00;102264.66;5055025;28;20501;-53
2023/01/24 11:18:29;;;;;;;1.50;1.43;;;;;;;3.50;100.00;102269.66;5054811;28;20912;-53
2023/01/24 11:21:12;;;;;;;0.70;0.70;;;;;;;3.57;100.00;102257.63;5054846;28;20451;-53
2023/01/24 11:23:39;;;;;;;1.10;1.10;;;;;;;3.75;100.00;102252.91;5041584;28;20520;-53
2023/01/24 11:26:20;;;;;;;1.70;1.60;;;;;;;3.42;100.00;102252.72;5054752;28;20454;-52
2023/01/24 11:28:56;;;;;;;5.00;2.30;;;;;;;3.53;100.00;102247.81;5054828;28;21022;-53
2023/01/24 11:31:37;;;;;;;1.67;1.57;;;;;;;3.54;100.00;102244.34;5054575;28;20439;-53
2023/01/24 11:34:14;;;;;;;3.20;1.00;;;;;;;3.67;100.00;102248.25;5054919;28;20446;-53
2023/01/24 11:36:59;;;;;;;0.97;0.97;;;;;;;3.69;100.00;102242.19;5042109;28;20447;-53
2023/01/24 11:39:53;;;;;;;1.13;0.43;;;;;;;3.63;99.87;102247.28;5054373;28;20803;-53
2023/01/24 11:42:22;;;;;;;1.37;1.27;;;;;;;3.46;99.91;102251.13;5053966;28;20493;-53
2023/01/24 11:45:23;;;;;;;2.10;1.13;;;;;;;3.73;100.00;102237.94;5054547;28;20529;-53
2023/01/24 11:48:03;;;;;;;3.17;1.60;;;;;;;3.65;100.00;102249.94;5054299;28;20458;-53
2023/01/24 11:50:40;;;;;;;4.37;1.80;;;;;;;3.55;100.00;102239.13;5053981;28;20484;-54
2023/01/24 11:53:40;;;;;;;0.87;0.70;;;;;;;3.67;100.00;102243.88;5054305;28;20466;-53
2023/01/24 11:56:20;;;;;;;3.30;2.87;;;;;;;3.60;100.00;102241.03;5040988;28;20447;-52
2023/01/24 11:58:56;;;;;;;1.57;1.47;;;;;;;3.44;100.00;102247.56;5053928;28;20446;-54
2023/01/24 12:01:28;;;;;;;1.03;1.03;;;;;;;3.77;99.31;102242.44;5054281;28;20553;-53
2023/01/24 12:04:24;;;;;;;1.57;1.47;;;;;;;3.56;99.63;102243.56;5054282;28;20478;-52
2023/01/24 12:07:01;;;;;;;5.93;1.17;;;;;;;3.63;99.13;102235.88;5053026;28;20450;-53
2023/01/24 12:09:44;;;;;;;3.00;2.90;;;;;;;3.72;99.99;102231.78;5054257;28;20863;-53
2023/01/24 12:12:17;;;;;;;2.00;1.00;;;;;;;3.46;100.00;102228.34;5053780;28;20463;-51
2023/01/24 12:15:16;;;;;;;1.63;1.53;;;;;;;3.66;99.84;102228.97;5053852;28;20435;-51
2023/01/24 12:18:18;;;;;;;0.53;0.53;;;;;;;3.64;99.04;102220.13;5053953;28;20538;-52